• Join FlightAware (Why Join?)
  • Login
  • US Flag 
01:16AM EDT


 

Airport Tracker/Info


-or-


 

Live Flight TrackerFlight Track Log ✈ N7020Q ✈ 15-Jun-2013 ✈ KMGY - KSOP

Flight Track Log - Related Links

Times and Time Zones

All times are in EDT time to prevent confusion due to time zone crossing. See the N7020Q flight status page for this flight to view local times or setup timezone preferences in your user account.

Time Position Orientation Groundspeed Altitude Reporting Facility
EDT Latitude Longitude Course Direction KTS MPH feet Rate Location/Type
01:36PM 39.5086 -84.1386 126° Southeast 87 100 3,200  Level Indianapolis Center
01:37PM 39.5031 -84.1314 135° Southeast 90 104 3,100  Descending Indianapolis Center
01:37PM 39.4864 -84.1303 177° South 94 108 3,200 -300 Climbing Indianapolis Center
01:38PM 39.4772 -84.1311 184° South 95 109 2,800 60 Descending Indianapolis Center
01:38PM 39.4608 -84.1322 183° South 103 119 3,300 540 Climbing Indianapolis Center
01:39PM 39.4517 -84.1333 185° South 96 110 3,400 540 Climbing Indianapolis Center
01:39PM 39.4356 -84.1344 183° South 83 96 3,900 480 Climbing Indianapolis Center
01:40PM 39.4297 -84.1286 142° Southeast 87 100 3,900 360 Level Indianapolis Center
01:40PM 39.4164 -84.1131 138° Southeast 89 102 4,300 360 Climbing Indianapolis Center
01:41PM 39.4128 -84.1061 124° Southeast 85 98 4,300 360 Level Indianapolis Center
01:41PM 39.4011 -84.0919 137° Southeast 83 96 4,700 480 Climbing Indianapolis Center
01:42PM 39.3953 -84.0864 144° Southeast 84 97 4,800 360 Climbing Indianapolis Center
01:43PM 39.3839 -84.0736 139° Southeast 80 92 5,100 240 Climbing Indianapolis Center
01:43PM 39.3786 -84.0672 137° Southeast 82 94 5,100 480 Level Indianapolis Center
01:44PM 39.3644 -84.0550 146° Southeast 82 94 5,600 360 Climbing Indianapolis Center
01:44PM 39.3603 -84.0492 133° Southeast 81 93 5,500 300 Descending Indianapolis Center
01:45PM 39.3403 -84.0286 142° Southeast 80 92 6,100 480 Climbing Indianapolis Center
01:46PM 39.3244 -84.0086 136° Southeast 79 91 6,500 360 Climbing Indianapolis Center
01:47PM 39.3078 -83.9856 133° Southeast 82 94 6,900 240 Climbing Indianapolis Center
01:48PM 39.2881 -83.9614 137° Southeast 88 101 7,000  Climbing Indianapolis Center
01:49PM 39.2644 -83.9350 139° Southeast 100 115 7,000 -60 Level Indianapolis Center
01:50PM 39.2408 -83.9086 139° Southeast 106 122 6,900  Descending Indianapolis Center
01:51PM 39.2183 -83.8819 137° Southeast 109 125 7,000  Climbing Indianapolis Center
01:52PM 39.1967 -83.8564 138° Southeast 107 123 6,900  Descending Indianapolis Center
01:53PM 39.1750 -83.8294 136° Southeast 108 124 7,000  Climbing Indianapolis Center
01:54PM 39.1497 -83.7975 136° Southeast 107 123 7,000  Level Indianapolis Center
01:55PM 39.1292 -83.7719 136° Southeast 105 121 7,000 -60 Level Indianapolis Center
01:56PM 39.1067 -83.7453 137° Southeast 107 123 6,900 -60 Descending Indianapolis Center
01:57PM 39.0850 -83.7194 137° Southeast 106 122 6,900  Level Indianapolis Center
01:58PM 39.0633 -83.6942 138° Southeast 105 121 6,900  Level Indianapolis Center
01:59PM 39.0414 -83.6675 137° Southeast 106 122 6,900  Level Indianapolis Center
02:00PM 39.0211 -83.6419 136° Southeast 104 120 7,000  Climbing Indianapolis Center
02:01PM 39.0003 -83.6150 135° Southeast 104 120 7,000  Level Indianapolis Center
02:02PM 38.9789 -83.5867 134° Southeast 108 124 7,000  Level Indianapolis Center
02:03PM 38.9564 -83.5603 138° Southeast 109 125 7,000  Level Indianapolis Center
02:04PM 38.9319 -83.5261 133° Southeast 109 125 7,000  Level Indianapolis Center
02:05PM 38.9097 -83.4986 136° Southeast 111 128 7,100  Climbing Indianapolis Center
02:07PM 38.8869 -83.4725 138° Southeast 109 125 7,100  Level Indianapolis Center
02:08PM 38.8650 -83.4458 137° Southeast 108 124 7,100  Level Indianapolis Center
02:09PM 38.8439 -83.4186 135° Southeast 108 124 7,100  Level Indianapolis Center
02:10PM 38.8211 -83.3914 137° Southeast 110 127 7,100 -60 Level Indianapolis Center
02:11PM 38.7997 -83.3650 136° Southeast 107 123 7,000 -60 Descending Indianapolis Center
02:12PM 38.7761 -83.3392 140° Southeast 109 125 7,000  Level Indianapolis Center
02:13PM 38.7539 -83.3133 138° Southeast 107 123 7,100  Climbing Indianapolis Center
02:14PM 38.7328 -83.2864 135° Southeast 105 121 7,000 -60 Descending Indianapolis Center
02:15PM 38.7069 -83.2553 137° Southeast 108 124 7,000  Level Indianapolis Center
02:16PM 38.6850 -83.2283 136° Southeast 109 125 7,100  Climbing Indianapolis Center
02:17PM 38.6619 -83.2008 137° Southeast 112 129 7,100  Level Indianapolis Center
02:18PM 38.6417 -83.1744 135° Southeast 111 128 7,100  Level Indianapolis Center
02:19PM 38.6150 -83.1436 138° Southeast 111 128 7,100 -60 Level Indianapolis Center
02:20PM 38.5925 -83.1153 135° Southeast 111 128 7,000 -60 Descending Indianapolis Center
02:21PM 38.5703 -83.0889 137° Southeast 110 127 7,000  Level Indianapolis Center
02:22PM 38.5483 -83.0636 138° Southeast 106 122 7,100  Climbing Indianapolis Center
02:23PM 38.5267 -83.0344 134° Southeast 112 129 7,000 -60 Descending Indianapolis Center
02:24PM 38.5053 -83.0064 134° Southeast 110 127 7,000  Level Indianapolis Center
02:25PM 38.4817 -82.9808 140° Southeast 111 128 7,000  Level Indianapolis Center
02:26PM 38.4600 -82.9528 135° Southeast 110 127 7,000  Level Indianapolis Center
02:27PM 38.4311 -82.9203 139° Southeast 116 133 7,000  Level Indianapolis Center
02:28PM 38.4086 -82.8928 136° Southeast 113 130 7,000  Level Indianapolis Center
02:29PM 38.3847 -82.8653 138° Southeast 114 131 7,000  Level Indianapolis Center
02:30PM 38.3600 -82.8381 139° Southeast 117 135 7,100  Climbing Indianapolis Center
02:31PM 38.3364 -82.8139 141° Southeast 111 128 7,100  Level Indianapolis Center
02:32PM 38.3117 -82.7844 137° Southeast 118 136 7,100 -60 Level Indianapolis Center
02:33PM 38.2875 -82.7578 139° Southeast 116 133 7,000 -60 Descending Indianapolis Center
02:34PM 38.2581 -82.7272 141° Southeast 116 133 7,000  Level Indianapolis Center
02:35PM 38.2339 -82.6975 136° Southeast 118 136 7,000  Level Indianapolis Center
02:36PM 38.2106 -82.6733 141° Southeast 110 127 7,000  Level Indianapolis Center
02:37PM 38.1875 -82.6458 137° Southeast 113 130 7,000  Level Indianapolis Center
02:38PM 38.1647 -82.6192 137° Southeast 111 128 7,100  Climbing Indianapolis Center
02:39PM 38.1431 -82.5903 134° Southeast 113 130 7,000 -60 Descending Indianapolis Center
02:40PM 38.1200 -82.5622 136° Southeast 113 130 7,000  Level Indianapolis Center
02:41PM 38.0939 -82.5308 137° Southeast 111 128 7,000  Level Indianapolis Center
02:42PM 38.0706 -82.5050 139° Southeast 110 127 7,100  Climbing Indianapolis Center
02:43PM 38.0483 -82.4772 135° Southeast 111 128 7,000 -60 Descending Indianapolis Center
02:45PM 38.0247 -82.4517 140° Southeast 111 128 7,000  Level Indianapolis Center
02:46PM 38.0017 -82.4264 139° Southeast 110 127 7,000  Level Indianapolis Center
02:47PM 37.9778 -82.4006 140° Southeast 110 127 7,000  Level Indianapolis Center
02:48PM 37.9542 -82.3742 139° Southeast 112 129 7,100  Climbing Indianapolis Center
02:49PM 37.9278 -82.3444 138° Southeast 110 127 7,000 -60 Descending Indianapolis Center
02:50PM 37.9039 -82.3200 141° Southeast 109 125 7,000  Level Indianapolis Center
02:51PM 37.8803 -82.2936 139° Southeast 111 128 7,000  Level Indianapolis Center
02:52PM 37.8564 -82.2694 141° Southeast 111 128 7,000  Level Indianapolis Center
02:53PM 37.8303 -82.2431 141° Southeast 115 132 7,000  Level Indianapolis Center
02:54PM 37.8069 -82.2175 139° Southeast 114 131 7,000  Level Indianapolis Center
02:55PM 37.7789 -82.1889 141° Southeast 112 129 7,000  Level Indianapolis Center
02:56PM 37.7539 -82.1625 140° Southeast 114 131 7,000  Level Indianapolis Center
02:57PM 37.7306 -82.1367 139° Southeast 113 130 7,000 -60 Level Indianapolis Center
02:58PM 37.7069 -82.1119 140° Southeast 111 128 6,900  Descending Indianapolis Center
02:59PM 37.6814 -82.0894 145° Southeast 112 129 7,000  Climbing Indianapolis Center
03:00PM 37.6569 -82.0633 140° Southeast 113 130 7,000  Level Indianapolis Center
03:01PM 37.6342 -82.0381 139° Southeast 112 129 7,000  Level Indianapolis Center
03:02PM 37.6056 -82.0083 141° Southeast 113 130 7,000  Level Indianapolis Center
03:03PM 37.5825 -81.9856 142° Southeast 109 125 7,000  Level Indianapolis Center
03:04PM 37.5592 -81.9600 139° Southeast 109 125 7,000  Level Indianapolis Center
03:05PM 37.5361 -81.9358 140° Southeast 109 125 7,000  Level Indianapolis Center
03:06PM 37.5125 -81.9097 139° Southeast 111 128 7,000  Level Indianapolis Center
03:07PM 37.4883 -81.8850 141° Southeast 111 128 7,000  Level Indianapolis Center
03:08PM 37.4622 -81.8556 138° Southeast 110 127 7,000  Level Indianapolis Center
03:09PM 37.4381 -81.8303 140° Southeast 112 129 7,000  Level Indianapolis Center
03:10PM 37.4144 -81.8047 139° Southeast 111 128 7,000  Level Indianapolis Center
03:11PM 37.3919 -81.7803 139° Southeast 108 124 7,000 -60 Level Indianapolis Center
03:12PM 37.3683 -81.7539 138° Southeast 111 128 6,900  Descending Indianapolis Center
03:14PM 37.3269 -81.7136 142° Southeast 109 125 7,000 60 Climbing Atlanta Center
03:14PM 37.3158 -81.7006 137° Southeast 114 131 7,100  Climbing Indianapolis Center
03:15PM 37.2928 -81.6758 140° Southeast 110 127 7,000 -60 Descending Indianapolis Center
03:16PM 37.2703 -81.6514 139° Southeast 108 124 7,000  Level Indianapolis Center
03:18PM 37.2458 -81.6244 139° Southeast 113 130 7,100  Climbing Indianapolis Center
03:19PM 37.2225 -81.5992 139° Southeast 112 129 7,000 -60 Descending Indianapolis Center
03:20PM 37.1989 -81.5733 139° Southeast 112 129 7,000  Level Indianapolis Center
03:21PM 37.1717 -81.5450 140° Southeast 110 127 7,000  Level Indianapolis Center
03:22PM 37.1489 -81.5200 139° Southeast 108 124 7,100  Climbing Indianapolis Center
03:23PM 37.1267 -81.4961 139° Southeast 108 124 7,000 -120 Descending Indianapolis Center
03:24PM 37.1017 -81.4736 144° Southeast 109 125 6,900  Descending Indianapolis Center
03:25PM 37.0744 -81.4572 154° Southeast 109 125 7,000  Climbing Indianapolis Center
03:26PM 37.0503 -81.4328 141° Southeast 110 127 6,900 -60 Descending Indianapolis Center
03:27PM 37.0258 -81.4017 135° Southeast 109 125 6,900  Level Indianapolis Center
03:28PM 37.0058 -81.3792 138° Southeast 109 125 6,900  Level Indianapolis Center
03:29PM 36.9797 -81.3475 136° Southeast 111 128 6,900  Level Indianapolis Center
03:30PM 36.9569 -81.3233 140° Southeast 111 128 6,900  Level Indianapolis Center
03:31PM 36.9383 -81.2947 129° Southeast 111 128 6,900  Level Indianapolis Center
03:32PM 36.9089 -81.2636 140° Southeast 114 131 7,000 60 Climbing Atlanta Center
03:33PM 36.8897 -81.2383 133° Southeast 114 131 7,100  Climbing Atlanta Center
03:34PM 36.8681 -81.2081 132° Southeast 114 131 7,000 -60 Descending Atlanta Center
03:35PM 36.8486 -81.1803 131° Southeast 114 131 7,000  Level Atlanta Center
03:36PM 36.8250 -81.1500 134° Southeast 114 131 7,100  Climbing Atlanta Center
03:37PM 36.8036 -81.1222 134° Southeast 119 137 7,000  Descending Atlanta Center
03:38PM 36.7819 -81.0919 132° Southeast 119 137 7,100  Climbing Atlanta Center
03:39PM 36.7603 -81.0617 132° Southeast 114 131 7,100  Level Atlanta Center
03:40PM 36.7389 -81.0339 134° Southeast 119 137 7,100 -60 Level Atlanta Center
03:41PM 36.7175 -81.0064 134° Southeast 119 137 7,000 -60 Descending Atlanta Center
03:42PM 36.6917 -80.9814 142° Southeast 119 137 7,000  Level Atlanta Center
03:43PM 36.6703 -80.9564 137° Southeast 114 131 7,000  Level Atlanta Center
03:44PM 36.6467 -80.9314 140° Southeast 114 131 7,000  Level Atlanta Center
03:45PM 36.6272 -80.9036 131° Southeast 114 131 7,000 -60 Level Atlanta Center
03:46PM 36.6058 -80.8786 137° Southeast 114 131 6,900  Descending Atlanta Center
03:47PM 36.5842 -80.8511 134° Southeast 114 131 7,000 60 Climbing Atlanta Center
03:48PM 36.5586 -80.8261 142° Southeast 119 137 7,100  Climbing Atlanta Center
03:49PM 36.5308 -80.8014 144° Southeast 119 137 7,000 -60 Descending Atlanta Center
03:50PM 36.5028 -80.7717 140° Southeast 124 143 7,000  Level Atlanta Center
03:51PM 36.4792 -80.7467 140° Southeast 119 137 7,000  Level Atlanta Center
03:52PM 36.4575 -80.7192 134° Southeast 114 131 7,100  Climbing Atlanta Center
03:53PM 36.4319 -80.6919 139° Southeast 119 137 7,000 -60 Descending Atlanta Center
03:54PM 36.4083 -80.6672 140° Southeast 119 137 7,000  Level Atlanta Center
03:55PM 36.3844 -80.6372 135° Southeast 119 137 7,100 60 Climbing Atlanta Center
03:57PM 36.3509 -80.5999 138° Southeast  Level FlightAware Approximate
04:04PM 36.1909 -80.4223 138° Southeast  Level FlightAware Approximate
04:05PM 36.1680 -80.3969 138° Southeast  Level FlightAware Approximate
04:06PM 36.1452 -80.3716 138° Southeast  Level FlightAware Approximate
04:07PM 36.1223 -80.3464 138° Southeast  Level FlightAware Approximate
04:08PM 36.0994 -80.3211 138° Southeast  Level FlightAware Approximate
04:09PM 36.0765 -80.2958 138° Southeast  Level FlightAware Approximate
04:10PM 36.0536 -80.2706 138° Southeast  Level FlightAware Approximate
04:11PM 36.0307 -80.2453 138° Southeast  Level FlightAware Approximate
04:12PM 36.0077 -80.2201 138° Southeast  Level FlightAware Approximate
04:13PM 35.9848 -80.1949 138° Southeast  Level FlightAware Approximate
04:14PM 35.9619 -80.1697 138° Southeast  Level FlightAware Approximate
04:15PM 35.9389 -80.1445 138° Southeast  Level FlightAware Approximate
04:16PM 35.9160 -80.1194 138° Southeast  Level FlightAware Approximate
04:17PM 35.8931 -80.0943 138° Southeast  Level FlightAware Approximate
04:18PM 35.8701 -80.0691 138° Southeast  Level FlightAware Approximate
04:19PM 35.8471 -80.0440 138° Southeast  Level FlightAware Approximate
04:20PM 35.8242 -80.0189 138° Southeast  Level FlightAware Approximate
04:21PM 35.8012 -79.9938 138° Southeast  Level FlightAware Approximate
04:22PM 35.7783 -79.9688 138° Southeast  Level FlightAware Approximate
04:23PM 35.7553 -79.9437 138° Southeast  Level FlightAware Approximate
04:24PM 35.7323 -79.9187 139° Southeast  Level FlightAware Approximate
04:25PM 35.7093 -79.8936 139° Southeast  Level FlightAware Approximate
04:26PM 35.6863 -79.8686 139° Southeast  Level FlightAware Approximate
04:27PM 35.6633 -79.8436 139° Southeast  Level FlightAware Approximate
04:28PM 35.6403 -79.8186 139° Southeast  Level FlightAware Approximate
04:29PM 35.6173 -79.7937 139° Southeast  Level FlightAware Approximate
04:30PM 35.5943 -79.7687 139° Southeast  Level FlightAware Approximate
04:31PM 35.5713 -79.7438 139° Southeast  Level FlightAware Approximate
04:32PM 35.5482 -79.7188 139° Southeast  Level FlightAware Approximate
04:33PM 35.5252 -79.6939 139° Southeast  Level FlightAware Approximate
04:34PM 35.5022 -79.6690 139° Southeast  Level FlightAware Approximate
04:35PM 35.4783 -79.6450 141° Southeast  Level FlightAware Approximate
04:36PM 35.4545 -79.6212 141° Southeast  Level FlightAware Approximate
04:37PM 35.4307 -79.5974 141° Southeast  Level FlightAware Approximate
04:38PM 35.4070 -79.5736 141° Southeast  Level FlightAware Approximate
04:39PM 35.3832 -79.5498 141° Southeast  Level FlightAware Approximate
04:40PM 35.3600 -79.5253 136° Southeast  Level FlightAware Approximate
04:41PM 35.3380 -79.4990 136° Southeast  Level FlightAware Approximate
04:42PM 35.3161 -79.4726 136° Southeast  Level FlightAware Approximate
04:43PM 35.2942 -79.4464 136° Southeast  Level FlightAware Approximate
04:44PM 35.2713 -79.4213 141° Southeast  Level FlightAware Approximate